createdAt,value
2023-03-23T00:00:00.337Z,24.1800
2023-03-23T00:00:11.401Z,24.1800
2023-03-23T00:00:22.540Z,24.1800
2023-03-23T00:00:33.570Z,24.1900
2023-03-23T00:00:44.634Z,24.1800
2023-03-23T00:00:55.687Z,24.1900
2023-03-23T00:01:06.739Z,24.1900
2023-03-23T00:01:17.790Z,24.1800
2023-03-23T00:01:29.208Z,24.1700
2023-03-23T00:01:40.737Z,24.1700
2023-03-23T00:01:51.928Z,24.1700
2023-03-23T00:02:03.209Z,24.1700
2023-03-23T00:02:14.496Z,24.1700
2023-03-23T00:02:25.595Z,24.1600
2023-03-23T00:02:36.637Z,24.1500
2023-03-23T00:02:47.756Z,24.1500
2023-03-23T00:02:58.808Z,24.1500
2023-03-23T00:03:09.868Z,24.1500
2023-03-23T00:03:20.927Z,24.1500
2023-03-23T00:03:31.979Z,24.1500
2023-03-23T00:03:43.016Z,24.1500
2023-03-23T00:03:54.086Z,24.1600
2023-03-23T00:04:05.146Z,24.1600
2023-03-23T00:04:16.208Z,24.1600
2023-03-23T00:04:33.160Z,24.1700
2023-03-23T00:04:44.358Z,24.1600
2023-03-23T00:04:55.418Z,24.1700
2023-03-23T00:05:06.486Z,24.1800
2023-03-23T00:05:17.547Z,24.1900
2023-03-23T00:05:28.901Z,24.1800
2023-03-23T00:05:40.184Z,24.1800
2023-03-23T00:05:51.634Z,24.1800
2023-03-23T00:06:02.679Z,24.1800
2023-03-23T00:06:13.727Z,24.1900
2023-03-23T00:06:24.765Z,24.1900
2023-03-23T00:06:35.820Z,24.2000
2023-03-23T00:06:47.286Z,24.2000
2023-03-23T00:06:58.317Z,24.2000
2023-03-23T00:07:09.362Z,24.2100
2023-03-23T00:07:20.437Z,24.2100
2023-03-23T00:07:31.666Z,24.2100
2023-03-23T00:07:42.716Z,24.2000
2023-03-23T00:07:54.216Z,24.2000
2023-03-23T00:08:05.416Z,24.2100
2023-03-23T00:08:16.505Z,24.2000
2023-03-23T00:08:27.788Z,24.2000
2023-03-23T00:08:38.838Z,24.2000
2023-03-23T00:08:49.910Z,24.2100
2023-03-23T00:09:06.846Z,24.2100
2023-03-23T00:09:17.906Z,24.1900
2023-03-23T00:09:29.006Z,24.1900
2023-03-23T00:09:40.077Z,24.1900
2023-03-23T00:09:51.147Z,24.1900
2023-03-23T00:10:02.193Z,24.1900
2023-03-23T00:10:13.219Z,24.1900
2023-03-23T00:10:24.314Z,24.1900
2023-03-23T00:10:35.375Z,24.1900
2023-03-23T00:10:46.656Z,24.1800
2023-03-23T00:10:57.730Z,24.1900
2023-03-23T00:11:08.789Z,24.1900
2023-03-23T00:11:19.844Z,24.1900
2023-03-23T00:11:30.988Z,24.1800
2023-03-23T00:11:42.156Z,24.1800
2023-03-23T00:11:53.362Z,24.1800
2023-03-23T00:12:04.402Z,24.1900
2023-03-23T00:12:15.926Z,24.1900
2023-03-23T00:12:26.989Z,24.1800
2023-03-23T00:12:42.843Z,24.1800
2023-03-23T00:12:53.906Z,24.1600
2023-03-23T00:13:05.024Z,24.1600
2023-03-23T00:13:16.075Z,24.1700
2023-03-23T00:13:27.137Z,24.1800
2023-03-23T00:13:38.189Z,24.1800
2023-03-23T00:13:50.039Z,24.1900
2023-03-23T00:14:01.086Z,24.1800
2023-03-23T00:14:12.150Z,24.1800
2023-03-23T00:14:23.218Z,24.1800
2023-03-23T00:14:34.252Z,24.1800
2023-03-23T00:14:45.316Z,24.1900
2023-03-23T00:15:02.255Z,24.1800
2023-03-23T00:15:13.310Z,24.1600
2023-03-23T00:15:24.361Z,24.1400
2023-03-23T00:15:35.423Z,24.1400
2023-03-23T00:15:46.481Z,24.1300
2023-03-23T00:15:57.545Z,24.1300
2023-03-23T00:16:14.516Z,24.1300
2023-03-23T00:16:25.528Z,24.1200
2023-03-23T00:16:36.737Z,24.1300
2023-03-23T00:16:47.787Z,24.1400
2023-03-23T00:16:58.839Z,24.1600
2023-03-23T00:17:09.926Z,24.1600
2023-03-23T00:17:20.973Z,24.1600
2023-03-23T00:17:32.423Z,24.1700
2023-03-23T00:17:43.492Z,24.1700
2023-03-23T00:17:54.558Z,24.1700
2023-03-23T00:18:05.665Z,24.1700
2023-03-23T00:18:16.725Z,24.1800
2023-03-23T00:18:28.741Z,24.1800
2023-03-23T00:18:39.804Z,24.1800
2023-03-23T00:18:50.878Z,24.1800
2023-03-23T00:19:01.945Z,24.1700
2023-03-23T00:19:13.016Z,24.1700
2023-03-23T00:19:25.611Z,24.1600
2023-03-23T00:19:37.777Z,24.1500
2023-03-23T00:19:48.817Z,24.1300
2023-03-23T00:20:00.279Z,24.1300
2023-03-23T00:20:11.577Z,24.1300
2023-03-23T00:20:22.635Z,24.1300
2023-03-23T00:20:33.921Z,24.1300
2023-03-23T00:20:44.997Z,24.1300
2023-03-23T00:20:56.079Z,24.1300
2023-03-23T00:21:07.132Z,24.1300
2023-03-23T00:21:18.207Z,24.1400
2023-03-23T00:21:29.250Z,24.1400
2023-03-23T00:21:40.278Z,24.1500
2023-03-23T00:21:52.264Z,24.1500
2023-03-23T00:22:03.311Z,24.1500
2023-03-23T00:22:14.344Z,24.1600
2023-03-23T00:22:25.576Z,24.1500
2023-03-23T00:22:36.729Z,24.1500
2023-03-23T00:22:47.786Z,24.1500
2023-03-23T00:22:59.167Z,24.1600
2023-03-23T00:23:10.264Z,24.1700
2023-03-23T00:23:21.320Z,24.1700
2023-03-23T00:23:32.447Z,24.1800
2023-03-23T00:23:43.507Z,24.1800
2023-03-23T00:23:54.556Z,24.1700
2023-03-23T00:24:06.030Z,24.1800
2023-03-23T00:24:17.079Z,24.1800
2023-03-23T00:24:28.130Z,24.1900
2023-03-23T00:24:39.194Z,24.1900
2023-03-23T00:24:50.261Z,24.2000
2023-03-23T00:25:01.347Z,24.2100
2023-03-23T00:25:12.974Z,24.2100
2023-03-23T00:25:24.259Z,24.2100
2023-03-23T00:25:35.614Z,24.2100
2023-03-23T00:25:46.666Z,24.2200
2023-03-23T00:25:57.715Z,24.2300
2023-03-23T00:26:08.773Z,24.2300
2023-03-23T00:26:19.818Z,24.2200
2023-03-23T00:26:31.062Z,24.2200
2023-03-23T00:26:48.440Z,24.2200
2023-03-23T00:26:59.796Z,24.2000
2023-03-23T00:27:11.315Z,24.2000
2023-03-23T00:27:22.377Z,24.2100
2023-03-23T00:27:33.418Z,24.2200
2023-03-23T00:27:44.568Z,24.2200
2023-03-23T00:27:55.619Z,24.2200
2023-03-23T00:28:07.019Z,24.2200
2023-03-23T00:28:18.126Z,24.2200
2023-03-23T00:28:29.192Z,24.2200
2023-03-23T00:28:40.241Z,24.2100
2023-03-23T00:28:51.315Z,24.2100
2023-03-23T00:29:02.515Z,24.2100
2023-03-23T00:29:13.570Z,24.2100
2023-03-23T00:29:24.634Z,24.2000
2023-03-23T00:29:35.685Z,24.2000
2023-03-23T00:29:46.740Z,24.2000
2023-03-23T00:29:57.862Z,24.2000
2023-03-23T00:30:08.887Z,24.1900
2023-03-23T00:30:19.957Z,24.2000
2023-03-23T00:30:31.023Z,24.2000
2023-03-23T00:30:42.077Z,24.2100
2023-03-23T00:30:53.329Z,24.2200
2023-03-23T00:31:04.366Z,24.2200
2023-03-23T00:31:15.453Z,24.2300
2023-03-23T00:31:26.537Z,24.2300
2023-03-23T00:31:37.615Z,24.2400
2023-03-23T00:31:48.677Z,24.2400
2023-03-23T00:31:59.740Z,24.2400
2023-03-23T00:32:10.798Z,24.2500
2023-03-23T00:32:21.864Z,24.2500
2023-03-23T00:32:32.907Z,24.2600
2023-03-23T00:32:43.963Z,24.2600
2023-03-23T00:32:55.008Z,24.2700
2023-03-23T00:33:06.185Z,24.2700
2023-03-23T00:33:17.699Z,24.2800
2023-03-23T00:33:32.416Z,24.2700
2023-03-23T00:33:43.520Z,24.2700
2023-03-23T00:33:54.582Z,24.2500
2023-03-23T00:34:05.680Z,24.2600
2023-03-23T00:34:17.776Z,24.2700
2023-03-23T00:34:28.834Z,24.2700
2023-03-23T00:34:40.264Z,24.2700
2023-03-23T00:34:51.788Z,24.2700
2023-03-23T00:35:02.875Z,24.2700
2023-03-23T00:35:13.908Z,24.2700
2023-03-23T00:35:25.135Z,24.2700
2023-03-23T00:35:36.182Z,24.2700
2023-03-23T00:35:47.271Z,24.2700
2023-03-23T00:35:58.550Z,24.2700
2023-03-23T00:36:09.628Z,24.2600
2023-03-23T00:36:21.088Z,24.2600
2023-03-23T00:36:32.154Z,24.2500
2023-03-23T00:36:43.529Z,24.2500
2023-03-23T00:36:54.672Z,24.2600
2023-03-23T00:37:05.724Z,24.2600
2023-03-23T00:37:16.770Z,24.2600
2023-03-23T00:37:27.826Z,24.2600
2023-03-23T00:37:40.102Z,24.2600
2023-03-23T00:37:51.637Z,24.2500
2023-03-23T00:38:03.144Z,24.2600
2023-03-23T00:38:14.237Z,24.2600
2023-03-23T00:38:25.542Z,24.2600
2023-03-23T00:38:37.106Z,24.2500
2023-03-23T00:38:48.199Z,24.2500
2023-03-23T00:38:59.329Z,24.2500
2023-03-23T00:39:10.662Z,24.2400
2023-03-23T00:39:22.188Z,24.2300
2023-03-23T00:39:33.740Z,24.2300
2023-03-23T00:39:44.790Z,24.2200
2023-03-23T00:39:55.908Z,24.2300
2023-03-23T00:40:06.965Z,24.2400
2023-03-23T00:40:18.007Z,24.2400
2023-03-23T00:40:29.049Z,24.2500
2023-03-23T00:40:40.125Z,24.2500
2023-03-23T00:40:51.179Z,24.2500
2023-03-23T00:41:02.259Z,24.2500
2023-03-23T00:41:13.320Z,24.2500
2023-03-23T00:41:24.734Z,24.2600
2023-03-23T00:41:35.796Z,24.2600
2023-03-23T00:41:46.845Z,24.2600
2023-03-23T00:41:57.887Z,24.2600
2023-03-23T00:42:09.572Z,24.2700
2023-03-23T00:42:20.615Z,24.2700
2023-03-23T00:42:31.649Z,24.2700
2023-03-23T00:42:42.710Z,24.2700
2023-03-23T00:42:53.788Z,24.2700
2023-03-23T00:43:04.839Z,24.2700
2023-03-23T00:43:15.962Z,24.2700
2023-03-23T00:43:27.025Z,24.2600
2023-03-23T00:43:38.124Z,24.2500
2023-03-23T00:43:49.168Z,24.2500
2023-03-23T00:44:00.240Z,24.2500
2023-03-23T00:44:11.818Z,24.2500
2023-03-23T00:44:28.770Z,24.2500
2023-03-23T00:44:39.819Z,24.2300
2023-03-23T00:44:50.870Z,24.2300
2023-03-23T00:45:02.687Z,24.2400
2023-03-23T00:45:13.761Z,24.2400
2023-03-23T00:45:24.799Z,24.2400
2023-03-23T00:45:35.850Z,24.2500
2023-03-23T00:45:46.880Z,24.2500
2023-03-23T00:45:57.940Z,24.2400
2023-03-23T00:46:09.023Z,24.2400
2023-03-23T00:46:20.106Z,24.2300
2023-03-23T00:46:31.157Z,24.2300
2023-03-23T00:46:42.217Z,24.2300
2023-03-23T00:46:53.276Z,24.2300
2023-03-23T00:47:04.310Z,24.2200
2023-03-23T00:47:15.373Z,24.2200
2023-03-23T00:47:27.354Z,24.2300
2023-03-23T00:47:38.490Z,24.2300
2023-03-23T00:47:49.579Z,24.2300
2023-03-23T00:48:00.812Z,24.2300
2023-03-23T00:48:12.039Z,24.2200
2023-03-23T00:48:23.110Z,24.2300
2023-03-23T00:48:34.166Z,24.2400
2023-03-23T00:48:45.247Z,24.2400
2023-03-23T00:48:56.326Z,24.2500
2023-03-23T00:49:07.381Z,24.2500
2023-03-23T00:49:18.440Z,24.2600
2023-03-23T00:49:29.494Z,24.2600
2023-03-23T00:49:40.551Z,24.2600
2023-03-23T00:49:51.599Z,24.2600
2023-03-23T00:50:02.655Z,24.2600
2023-03-23T00:50:13.705Z,24.2600
2023-03-23T00:50:33.845Z,24.2700
2023-03-23T00:50:41.815Z,24.2700
2023-03-23T00:50:52.869Z,24.2500
2023-03-23T00:51:03.933Z,24.2500
2023-03-23T00:51:15.483Z,24.2600
2023-03-23T00:51:26.523Z,24.2700
2023-03-23T00:51:37.570Z,24.2700
2023-03-23T00:51:48.638Z,24.2800
2023-03-23T00:51:59.708Z,24.2900
2023-03-23T00:52:10.775Z,24.2900
2023-03-23T00:52:21.841Z,24.3000
2023-03-23T00:52:32.905Z,24.3000
2023-03-23T00:52:43.970Z,24.3000
2023-03-23T00:52:55.019Z,24.3000
2023-03-23T00:53:06.499Z,24.3000
2023-03-23T00:53:17.561Z,24.3000
2023-03-23T00:53:28.624Z,24.3000
2023-03-23T00:53:39.714Z,24.3000
2023-03-23T00:53:50.797Z,24.3100
2023-03-23T00:54:01.992Z,24.3100
2023-03-23T00:54:13.040Z,24.3100
2023-03-23T00:54:24.106Z,24.3100
2023-03-23T00:54:35.131Z,24.3100
2023-03-23T00:54:46.689Z,24.3100
2023-03-23T00:54:57.757Z,24.3100
2023-03-23T00:55:08.822Z,24.3200
2023-03-23T00:55:19.899Z,24.3200
2023-03-23T00:55:30.947Z,24.3100
2023-03-23T00:55:42.181Z,24.3100
2023-03-23T00:55:53.571Z,24.3100
2023-03-23T00:56:04.614Z,24.3100
2023-03-23T00:56:15.662Z,24.3200
2023-03-23T00:56:26.806Z,24.3200
2023-03-23T00:56:37.844Z,24.3000
2023-03-23T00:56:49.003Z,24.2900
2023-03-23T00:57:00.101Z,24.2800
2023-03-23T00:57:11.140Z,24.2800
2023-03-23T00:57:22.213Z,24.2800
2023-03-23T00:57:33.263Z,24.2700
2023-03-23T00:57:44.388Z,24.2700
2023-03-23T00:57:55.778Z,24.2700
2023-03-23T00:58:06.833Z,24.2700
2023-03-23T00:58:17.878Z,24.2800
2023-03-23T00:58:28.922Z,24.2800
2023-03-23T00:58:39.962Z,24.2900
2023-03-23T00:58:51.068Z,24.2900
2023-03-23T00:59:02.143Z,24.3000
2023-03-23T00:59:13.484Z,24.3000
2023-03-23T00:59:24.551Z,24.3000
2023-03-23T00:59:35.601Z,24.3000
2023-03-23T00:59:46.887Z,24.3100
2023-03-23T00:59:57.978Z,24.3100
2023-03-23T01:00:14.929Z,24.3100
2023-03-23T01:00:26.004Z,24.2900
2023-03-23T01:00:37.060Z,24.2900
2023-03-23T01:00:48.123Z,24.2900
2023-03-23T01:00:59.171Z,24.2900
2023-03-23T01:01:10.682Z,24.2900
2023-03-23T01:01:21.716Z,24.2900
2023-03-23T01:01:32.882Z,24.2900
2023-03-23T01:01:44.116Z,24.2900
2023-03-23T01:01:55.179Z,24.2900
2023-03-23T01:02:06.248Z,24.3000
2023-03-23T01:02:17.614Z,24.3000
2023-03-23T01:02:28.665Z,24.3000
2023-03-23T01:02:39.801Z,24.3100
2023-03-23T01:02:50.828Z,24.3000
2023-03-23T01:03:02.017Z,24.3000
2023-03-23T01:03:13.084Z,24.3000
2023-03-23T01:03:24.119Z,24.3100
2023-03-23T01:03:35.160Z,24.3100
2023-03-23T01:03:46.215Z,24.3100
2023-03-23T01:03:57.289Z,24.3000
2023-03-23T01:04:08.343Z,24.2900
2023-03-23T01:04:19.749Z,24.2900
2023-03-23T01:04:30.817Z,24.2800
2023-03-23T01:04:41.900Z,24.2900
2023-03-23T01:04:52.961Z,24.2900
2023-03-23T01:05:04.009Z,24.2900
2023-03-23T01:05:15.059Z,24.2800
2023-03-23T01:05:26.117Z,24.2700
2023-03-23T01:05:37.207Z,24.2700
2023-03-23T01:05:48.758Z,24.2600
2023-03-23T01:05:59.816Z,24.2500
2023-03-23T01:06:10.869Z,24.2500
2023-03-23T01:06:23.023Z,24.2500
2023-03-23T01:06:34.219Z,24.2400
2023-03-23T01:06:45.273Z,24.2300
2023-03-23T01:06:56.330Z,24.2300
2023-03-23T01:07:07.418Z,24.2400
2023-03-23T01:07:18.488Z,24.2500
2023-03-23T01:07:29.863Z,24.2500
2023-03-23T01:07:40.940Z,24.2500
2023-03-23T01:07:51.987Z,24.2600
2023-03-23T01:08:03.050Z,24.2600
2023-03-23T01:08:14.089Z,24.2600
2023-03-23T01:08:25.129Z,24.2600
2023-03-23T01:08:36.182Z,24.2600
2023-03-23T01:08:47.239Z,24.2600
2023-03-23T01:08:58.325Z,24.2600
2023-03-23T01:09:09.426Z,24.2600
2023-03-23T01:09:20.465Z,24.2600
2023-03-23T01:09:31.528Z,24.2600
2023-03-23T01:09:42.612Z,24.2600
2023-03-23T01:09:53.669Z,24.2600
2023-03-23T01:10:05.057Z,24.2700
2023-03-23T01:10:16.112Z,24.2700
2023-03-23T01:10:31.938Z,24.2700
2023-03-23T01:10:43.041Z,24.2500
2023-03-23T01:10:54.199Z,24.2500
2023-03-23T01:11:05.286Z,24.2500
2023-03-23T01:11:16.320Z,24.2400
2023-03-23T01:11:27.347Z,24.2300
2023-03-23T01:11:38.424Z,24.2300
2023-03-23T01:11:49.448Z,24.2300
2023-03-23T01:12:00.489Z,24.2400
2023-03-23T01:12:11.636Z,24.2500
2023-03-23T01:12:22.758Z,24.2400
2023-03-23T01:12:34.197Z,24.2400
2023-03-23T01:12:45.259Z,24.2300
2023-03-23T01:12:56.323Z,24.2400
2023-03-23T01:13:07.384Z,24.2400
2023-03-23T01:13:18.407Z,24.2500
2023-03-23T01:13:29.848Z,24.2600
2023-03-23T01:13:40.919Z,24.2600
2023-03-23T01:13:52.160Z,24.2700
2023-03-23T01:14:03.248Z,24.2700
2023-03-23T01:14:14.318Z,24.2800
2023-03-23T01:14:25.387Z,24.2800
2023-03-23T01:14:36.411Z,24.2800
2023-03-23T01:14:47.468Z,24.2800
2023-03-23T01:14:58.533Z,24.2900
2023-03-23T01:15:09.719Z,24.2900
2023-03-23T01:15:20.772Z,24.2900
2023-03-23T01:15:31.826Z,24.2900
2023-03-23T01:15:43.363Z,24.3000
2023-03-23T01:15:54.405Z,24.3000
2023-03-23T01:16:05.447Z,24.3000
2023-03-23T01:16:16.501Z,24.2900
2023-03-23T01:16:27.554Z,24.3000
2023-03-23T01:16:38.606Z,24.3100
2023-03-23T01:16:49.622Z,24.3100
2023-03-23T01:17:01.089Z,24.3100
2023-03-23T01:17:12.148Z,24.3100
2023-03-23T01:17:23.217Z,24.3100
2023-03-23T01:17:34.437Z,24.3200
2023-03-23T01:17:45.516Z,24.3200
2023-03-23T01:17:56.566Z,24.3300
2023-03-23T01:18:07.597Z,24.3200
2023-03-23T01:18:18.661Z,24.3200
2023-03-23T01:18:35.596Z,24.3100
2023-03-23T01:18:46.650Z,24.2900
2023-03-23T01:18:57.908Z,24.3000
2023-03-23T01:19:09.008Z,24.3000
2023-03-23T01:19:20.477Z,24.3100
2023-03-23T01:19:31.519Z,24.3100
2023-03-23T01:19:42.567Z,24.3100
2023-03-23T01:19:53.638Z,24.3200
2023-03-23T01:20:04.677Z,24.3200
2023-03-23T01:20:15.746Z,24.3200
2023-03-23T01:20:26.784Z,24.3100
2023-03-23T01:20:37.941Z,24.3100
2023-03-23T01:20:48.967Z,24.3100
2023-03-23T01:21:00.068Z,24.3100
2023-03-23T01:21:11.110Z,24.3100
2023-03-23T01:21:22.166Z,24.3100
2023-03-23T01:21:33.253Z,24.3000
2023-03-23T01:21:44.296Z,24.3000
2023-03-23T01:21:55.348Z,24.3000
2023-03-23T01:22:06.530Z,24.3000
2023-03-23T01:22:17.847Z,24.3000
2023-03-23T01:22:28.906Z,24.3100
2023-03-23T01:22:39.990Z,24.3000
2023-03-23T01:22:51.040Z,24.3000
2023-03-23T01:23:02.328Z,24.3000
2023-03-23T01:23:13.859Z,24.3000
2023-03-23T01:23:24.876Z,24.2900
2023-03-23T01:23:35.918Z,24.2900
2023-03-23T01:23:46.947Z,24.3000
2023-03-23T01:23:57.992Z,24.3000
2023-03-23T01:24:09.097Z,24.3000
2023-03-23T01:24:20.728Z,24.3000
2023-03-23T01:24:31.797Z,24.3000
2023-03-23T01:24:43.151Z,24.3000
2023-03-23T01:24:54.648Z,24.2900
2023-03-23T01:25:05.856Z,24.2900
2023-03-23T01:25:16.915Z,24.2900
2023-03-23T01:25:28.085Z,24.2900
2023-03-23T01:25:39.422Z,24.2900
2023-03-23T01:25:50.980Z,24.3000
2023-03-23T01:26:02.157Z,24.2900
2023-03-23T01:26:13.207Z,24.2900
2023-03-23T01:26:24.366Z,24.3000
2023-03-23T01:26:35.447Z,24.2900
2023-03-23T01:26:46.649Z,24.2900
2023-03-23T01:26:57.702Z,24.2900
2023-03-23T01:27:08.739Z,24.2900
2023-03-23T01:27:19.805Z,24.2900
2023-03-23T01:27:30.857Z,24.3000
2023-03-23T01:27:41.920Z,24.3000
2023-03-23T01:27:52.968Z,24.3100
2023-03-23T01:28:04.447Z,24.3100
2023-03-23T01:28:15.487Z,24.2900
2023-03-23T01:28:27.136Z,24.2900
2023-03-23T01:28:38.202Z,24.2800
2023-03-23T01:28:49.366Z,24.2900
2023-03-23T01:29:00.398Z,24.2900
2023-03-23T01:29:11.517Z,24.3000
2023-03-23T01:29:22.560Z,24.3000
2023-03-23T01:29:33.597Z,24.3000
2023-03-23T01:29:44.677Z,24.3000
2023-03-23T01:29:55.767Z,24.3000
2023-03-23T01:30:06.839Z,24.3000
2023-03-23T01:30:17.988Z,24.3000
2023-03-23T01:30:29.046Z,24.3000
2023-03-23T01:30:40.586Z,24.3000
2023-03-23T01:30:51.639Z,24.3000
2023-03-23T01:31:02.708Z,24.3000
2023-03-23T01:31:19.657Z,24.3000
2023-03-23T01:31:30.724Z,24.2700
2023-03-23T01:31:41.736Z,24.2600
2023-03-23T01:31:52.759Z,24.2600
2023-03-23T01:32:03.809Z,24.2500
2023-03-23T01:32:14.877Z,24.2500
2023-03-23T01:32:25.931Z,24.2500
2023-03-23T01:32:36.986Z,24.2500
2023-03-23T01:32:48.033Z,24.2600
2023-03-23T01:32:59.116Z,24.2600
2023-03-23T01:33:10.358Z,24.2700
2023-03-23T01:33:21.438Z,24.2700
2023-03-23T01:33:32.492Z,24.2700
2023-03-23T01:33:43.547Z,24.2700
2023-03-23T01:33:54.568Z,24.2700
2023-03-23T01:34:05.692Z,24.2800
2023-03-23T01:34:17.267Z,24.2800
2023-03-23T01:34:28.757Z,24.2900
2023-03-23T01:34:39.817Z,24.2900
2023-03-23T01:34:54.056Z,24.2900
2023-03-23T01:35:05.112Z,24.2900
2023-03-23T01:35:16.297Z,24.2900
2023-03-23T01:35:27.619Z,24.3000
2023-03-23T01:35:38.727Z,24.3000
2023-03-23T01:35:49.930Z,24.3000
2023-03-23T01:36:00.988Z,24.3000
2023-03-23T01:36:12.156Z,24.3000
2023-03-23T01:36:23.225Z,24.3100
2023-03-23T01:36:34.370Z,24.3100
2023-03-23T01:36:45.513Z,24.3100
2023-03-23T01:36:56.532Z,24.3100
2023-03-23T01:37:07.572Z,24.3100
2023-03-23T01:37:18.832Z,24.3000
2023-03-23T01:37:29.898Z,24.3000
2023-03-23T01:37:40.950Z,24.3000
2023-03-23T01:37:52.612Z,24.3000
2023-03-23T01:38:04.097Z,24.3000
2023-03-23T01:38:15.167Z,24.3000
2023-03-23T01:38:26.288Z,24.3000
2023-03-23T01:38:37.329Z,24.3100
2023-03-23T01:38:48.388Z,24.3100
2023-03-23T01:38:59.566Z,24.3100
2023-03-23T01:39:10.635Z,24.3100
2023-03-23T01:39:21.951Z,24.3100
2023-03-23T01:39:33.006Z,24.3100
2023-03-23T01:39:44.048Z,24.3100
2023-03-23T01:39:55.103Z,24.3100
2023-03-23T01:40:06.158Z,24.3100
2023-03-23T01:40:17.218Z,24.3100
2023-03-23T01:40:28.269Z,24.3100
2023-03-23T01:40:39.339Z,24.3000
2023-03-23T01:40:50.399Z,24.3000
2023-03-23T01:41:01.440Z,24.3100
2023-03-23T01:41:12.500Z,24.3100
2023-03-23T01:41:23.544Z,24.3100
2023-03-23T01:41:34.587Z,24.3100
2023-03-23T01:41:45.652Z,24.3100
2023-03-23T01:41:56.723Z,24.3100
2023-03-23T01:42:07.782Z,24.3100
2023-03-23T01:42:18.910Z,24.3100
2023-03-23T01:42:30.121Z,24.3100
2023-03-23T01:42:41.198Z,24.3200
2023-03-23T01:42:52.262Z,24.3200
2023-03-23T01:43:03.292Z,24.3100
2023-03-23T01:43:14.347Z,24.3100
2023-03-23T01:43:25.370Z,24.3100
2023-03-23T01:43:36.412Z,24.3000
2023-03-23T01:43:47.459Z,24.3000
2023-03-23T01:43:58.512Z,24.3000
2023-03-23T01:44:09.600Z,24.3100
2023-03-23T01:44:20.659Z,24.3100
2023-03-23T01:44:31.765Z,24.3100
2023-03-23T01:44:42.814Z,24.3200
2023-03-23T01:44:53.954Z,24.3200
2023-03-23T01:45:05.031Z,24.3200
2023-03-23T01:45:16.078Z,24.3200
2023-03-23T01:45:27.431Z,24.3200
2023-03-23T01:45:38.477Z,24.3300
2023-03-23T01:45:49.533Z,24.3200
2023-03-23T01:46:00.595Z,24.3200
2023-03-23T01:46:11.645Z,24.3200
2023-03-23T01:46:22.690Z,24.3100
2023-03-23T01:46:33.754Z,24.3000
2023-03-23T01:46:44.789Z,24.2800
2023-03-23T01:46:55.853Z,24.2800
2023-03-23T01:47:06.914Z,24.2700
2023-03-23T01:47:18.381Z,24.2800
2023-03-23T01:47:29.471Z,24.2700
2023-03-23T01:47:40.646Z,24.2800
2023-03-23T01:47:51.680Z,24.2800
2023-03-23T01:48:03.166Z,24.2900
2023-03-23T01:48:14.222Z,24.2900
2023-03-23T01:48:28.779Z,24.3000
2023-03-23T01:48:39.810Z,24.2800
2023-03-23T01:48:50.872Z,24.2800
2023-03-23T01:49:01.932Z,24.2900
2023-03-23T01:49:12.984Z,24.2900
2023-03-23T01:49:24.041Z,24.3000
2023-03-23T01:49:35.124Z,24.3000
2023-03-23T01:49:46.401Z,24.3000
2023-03-23T01:49:57.455Z,24.3100
2023-03-23T01:50:08.516Z,24.3100
2023-03-23T01:50:19.573Z,24.3200
2023-03-23T01:50:30.821Z,24.3200
2023-03-23T01:50:41.874Z,24.3100
2023-03-23T01:50:52.925Z,24.3100
2023-03-23T01:51:03.965Z,24.3100
2023-03-23T01:51:15.482Z,24.3100
2023-03-23T01:51:36.602Z,24.3100
2023-03-23T01:51:43.486Z,24.3100
2023-03-23T01:51:54.867Z,24.2900
2023-03-23T01:52:06.122Z,24.2900
2023-03-23T01:52:17.182Z,24.3000
2023-03-23T01:52:28.242Z,24.3100
2023-03-23T01:52:39.436Z,24.3000
2023-03-23T01:52:50.482Z,24.3000
2023-03-23T01:53:01.541Z,24.2900
2023-03-23T01:53:12.570Z,24.2800
2023-03-23T01:53:23.634Z,24.2800
2023-03-23T01:53:34.693Z,24.2900
2023-03-23T01:53:45.752Z,24.2900
2023-03-23T01:53:56.793Z,24.2900
2023-03-23T01:54:07.914Z,24.3000
2023-03-23T01:54:19.002Z,24.3000
2023-03-23T01:54:30.109Z,24.3000
2023-03-23T01:54:41.245Z,24.3000
2023-03-23T01:54:52.354Z,24.2900
2023-03-23T01:55:03.402Z,24.3000
2023-03-23T01:55:14.822Z,24.3000
2023-03-23T01:55:25.873Z,24.3000
2023-03-23T01:55:36.922Z,24.3000
2023-03-23T01:55:47.972Z,24.3000
2023-03-23T01:55:59.105Z,24.3000
2023-03-23T01:56:10.137Z,24.3000
2023-03-23T01:56:21.745Z,24.3100
2023-03-23T01:56:32.793Z,24.3100
2023-03-23T01:56:43.828Z,24.3100
2023-03-23T01:56:54.916Z,24.3000
2023-03-23T01:57:05.952Z,24.2900
2023-03-23T01:57:17.006Z,24.2700
2023-03-23T01:57:28.117Z,24.2700
2023-03-23T01:57:39.453Z,24.2700
2023-03-23T01:57:50.505Z,24.2600
2023-03-23T01:58:01.565Z,24.2600
2023-03-23T01:58:12.640Z,24.2500
2023-03-23T01:58:23.682Z,24.2400
2023-03-23T01:58:34.725Z,24.2400
2023-03-23T01:58:45.782Z,24.2300
2023-03-23T01:58:56.854Z,24.2300
2023-03-23T01:59:07.912Z,24.2300
2023-03-23T01:59:18.975Z,24.2300
2023-03-23T01:59:30.036Z,24.2300
2023-03-23T01:59:41.076Z,24.2300
2023-03-23T01:59:54.531Z,24.2300
2023-03-23T02:00:05.656Z,24.2100
2023-03-23T02:00:16.682Z,24.2200
2023-03-23T02:00:27.744Z,24.2200
2023-03-23T02:00:38.771Z,24.2300
2023-03-23T02:00:49.850Z,24.2200
2023-03-23T02:01:02.038Z,24.2200
2023-03-23T02:01:13.110Z,24.2200
2023-03-23T02:01:24.162Z,24.2300
2023-03-23T02:01:35.233Z,24.2300
2023-03-23T02:01:46.832Z,24.2400
2023-03-23T02:01:57.905Z,24.2300
2023-03-23T02:02:08.968Z,24.2300
2023-03-23T02:02:20.425Z,24.2300
2023-03-23T02:02:31.482Z,24.2300
2023-03-23T02:02:42.536Z,24.2400
2023-03-23T02:02:53.569Z,24.2400
2023-03-23T02:03:05.482Z,24.2400
2023-03-23T02:03:17.296Z,24.2400
2023-03-23T02:03:35.344Z,24.2400
2023-03-23T02:03:46.411Z,24.2300
2023-03-23T02:03:57.421Z,24.1900
2023-03-23T02:04:08.925Z,24.2000
2023-03-23T02:04:19.981Z,24.2000
2023-03-23T02:04:31.200Z,24.2100
2023-03-23T02:04:42.300Z,24.2100
2023-03-23T02:04:53.356Z,24.2100
2023-03-23T02:05:04.822Z,24.2100
2023-03-23T02:05:16.826Z,24.2200
2023-03-23T02:05:27.872Z,24.2200
2023-03-23T02:05:38.930Z,24.2200
2023-03-23T02:05:49.985Z,24.2100
2023-03-23T02:06:01.041Z,24.2100
2023-03-23T02:06:12.092Z,24.2100
2023-03-23T02:06:23.181Z,24.2100
2023-03-23T02:06:34.232Z,24.2200
2023-03-23T02:06:45.295Z,24.2100
2023-03-23T02:06:56.332Z,24.2100
2023-03-23T02:07:07.397Z,24.2100
2023-03-23T02:07:18.425Z,24.2000
2023-03-23T02:07:29.462Z,24.2000
2023-03-23T02:07:40.705Z,24.2000
2023-03-23T02:07:51.761Z,24.2000
2023-03-23T02:08:02.821Z,24.2000
2023-03-23T02:08:14.360Z,24.1900
2023-03-23T02:08:25.419Z,24.1800
2023-03-23T02:08:36.504Z,24.1800
2023-03-23T02:08:47.544Z,24.1700
2023-03-23T02:08:58.585Z,24.1700
2023-03-23T02:09:15.532Z,24.1600
2023-03-23T02:09:26.593Z,24.1400
2023-03-23T02:09:37.645Z,24.1300
2023-03-23T02:09:49.083Z,24.1400
2023-03-23T02:10:00.164Z,24.1400
2023-03-23T02:10:11.213Z,24.1500
2023-03-23T02:10:22.247Z,24.1500
2023-03-23T02:10:33.318Z,24.1500
2023-03-23T02:10:44.374Z,24.1500
2023-03-23T02:11:01.363Z,24.1400
2023-03-23T02:11:12.428Z,24.1200
2023-03-23T02:11:29.383Z,24.1200
2023-03-23T02:11:40.422Z,24.1000
2023-03-23T02:11:51.485Z,24.1000
2023-03-23T02:12:02.630Z,24.1100
2023-03-23T02:12:13.679Z,24.1200
2023-03-23T02:12:24.725Z,24.1200
2023-03-23T02:12:35.768Z,24.1200
2023-03-23T02:12:47.331Z,24.1300
2023-03-23T02:12:58.562Z,24.1200
2023-03-23T02:13:12.345Z,24.1200
2023-03-23T02:13:23.792Z,24.1200
2023-03-23T02:13:34.876Z,24.1000
2023-03-23T02:13:46.855Z,24.1100
2023-03-23T02:13:57.902Z,24.1200
2023-03-23T02:14:08.964Z,24.1400
2023-03-23T02:14:20.029Z,24.1500
2023-03-23T02:14:31.181Z,24.1600
2023-03-23T02:14:42.234Z,24.1600
2023-03-23T02:14:54.011Z,24.1600
2023-03-23T02:15:05.061Z,24.1600
2023-03-23T02:15:16.152Z,24.1600
2023-03-23T02:15:27.969Z,24.1700
2023-03-23T02:15:39.306Z,24.1700
2023-03-23T02:15:51.005Z,24.1800
2023-03-23T02:16:02.069Z,24.1800
2023-03-23T02:16:13.123Z,24.1900
2023-03-23T02:16:24.581Z,24.1900
2023-03-23T02:16:35.674Z,24.1900